createdAt,value
2018-05-23T00:01:33.531Z,14.33
2018-05-23T00:04:01.943Z,13.83
2018-05-23T00:06:30.343Z,15.10
2018-05-23T00:08:58.746Z,16.30
2018-05-23T00:11:27.136Z,15.10
2018-05-23T00:13:55.548Z,16.57
2018-05-23T00:16:23.944Z,15.47
2018-05-23T00:18:52.355Z,15.77
2018-05-23T00:21:20.747Z,17.20
2018-05-23T00:23:49.164Z,14.27
2018-05-23T00:26:17.552Z,12.87
2018-05-23T00:28:45.958Z,12.47
2018-05-23T00:31:14.674Z,13.20
2018-05-23T00:33:43.527Z,16.70
2018-05-23T00:36:12.175Z,16.70
2018-05-23T00:38:41.504Z,15.17
2018-05-23T00:41:10.631Z,17.13
2018-05-23T00:43:39.159Z,15.97
2018-05-23T00:46:08.455Z,12.70
2018-05-23T00:48:37.166Z,13.17
2018-05-23T00:51:06.663Z,13.17
2018-05-23T00:53:35.551Z,12.73
2018-05-23T00:56:03.943Z,12.20
2018-05-23T00:58:32.705Z,13.13
2018-05-23T01:01:01.020Z,11.93
2018-05-23T01:03:29.427Z,13.93
2018-05-23T01:05:57.837Z,12.77
2018-05-23T01:08:26.211Z,12.73
2018-05-23T01:10:54.624Z,12.53
2018-05-23T01:13:23.017Z,13.23
2018-05-23T01:15:51.427Z,11.70
2018-05-23T01:18:19.811Z,11.63
2018-05-23T01:20:48.220Z,12.90
2018-05-23T01:23:16.610Z,12.63
2018-05-23T01:25:45.027Z,11.57
2018-05-23T01:28:13.407Z,12.23
2018-05-23T01:30:41.815Z,12.53
2018-05-23T01:33:10.478Z,13.20
2018-05-23T01:35:39.235Z,12.00
2018-05-23T01:38:07.803Z,12.60
2018-05-23T01:40:36.216Z,11.90
2018-05-23T01:43:04.599Z,11.73
2018-05-23T01:45:33.014Z,13.77
2018-05-23T01:48:01.405Z,12.80
2018-05-23T01:50:29.815Z,20.23
2018-05-23T01:52:58.213Z,21.73
2018-05-23T01:55:26.617Z,24.13
2018-05-23T01:57:55.011Z,16.63
2018-05-23T02:00:23.425Z,18.33
2018-05-23T02:02:51.810Z,19.90
2018-05-23T02:05:20.223Z,17.50
2018-05-23T02:07:48.624Z,15.80
2018-05-23T02:10:17.039Z,15.23
2018-05-23T02:12:45.432Z,16.13
2018-05-23T02:15:13.843Z,17.20
2018-05-23T02:17:42.235Z,16.37
2018-05-23T02:20:10.643Z,17.60
2018-05-23T02:22:39.040Z,17.83
2018-05-23T02:25:07.456Z,16.20
2018-05-23T02:27:35.843Z,16.20
2018-05-23T02:30:04.256Z,15.50
2018-05-23T02:32:32.647Z,16.80
2018-05-23T02:35:01.190Z,21.90
2018-05-23T02:37:30.159Z,16.33
2018-05-23T02:39:58.827Z,16.17
2018-05-23T02:42:27.313Z,15.10
2018-05-23T02:44:55.803Z,17.10
2018-05-23T02:47:24.307Z,19.00
2018-05-23T02:49:52.755Z,17.60
2018-05-23T02:52:21.151Z,16.80
2018-05-23T02:54:49.564Z,16.23
2018-05-23T02:57:17.957Z,16.67
2018-05-23T02:59:46.367Z,16.80
2018-05-23T03:02:14.746Z,19.17
2018-05-23T03:04:43.156Z,21.63
2018-05-23T03:07:11.538Z,26.60
2018-05-23T03:09:39.956Z,22.90
2018-05-23T03:12:08.564Z,48.23
2018-05-23T03:14:36.962Z,48.33
2018-05-23T03:17:05.359Z,58.70
2018-05-23T03:19:33.780Z,60.07
2018-05-23T03:22:02.185Z,126.53
2018-05-23T03:24:30.594Z,130.90
2018-05-23T03:26:58.983Z,119.90
2018-05-23T03:29:27.399Z,133.07
2018-05-23T03:31:55.788Z,155.70
2018-05-23T03:34:24.203Z,119.73
2018-05-23T03:36:52.600Z,87.57
2018-05-23T03:39:21.035Z,81.97
2018-05-23T03:41:49.427Z,80.57
2018-05-23T03:44:17.840Z,75.80
2018-05-23T03:46:46.319Z,97.13
2018-05-23T03:49:15.222Z,41.57
2018-05-23T03:51:43.915Z,54.47
2018-05-23T03:54:12.668Z,26.57
2018-05-23T03:56:41.346Z,30.10
2018-05-23T03:59:09.759Z,27.53
2018-05-23T04:04:52.683Z,27.00
2018-05-23T04:07:33.147Z,20.77
2018-05-23T04:10:01.555Z,18.27
2018-05-23T04:12:31.583Z,21.07
2018-05-23T04:15:00.043Z,18.03
2018-05-23T04:17:29.023Z,16.10
2018-05-23T04:19:57.494Z,16.23
2018-05-23T04:22:26.440Z,18.13
2018-05-23T04:24:54.930Z,15.20
2018-05-23T04:27:23.495Z,13.63
2018-05-23T04:29:52.644Z,15.17
2018-05-23T04:32:21.437Z,13.17
2018-05-23T04:34:51.299Z,14.50
2018-05-23T04:37:19.839Z,15.67
2018-05-23T04:39:48.253Z,20.97
2018-05-23T04:42:16.751Z,13.37
2018-05-23T04:44:45.163Z,14.13
2018-05-23T04:47:14.455Z,14.77
2018-05-23T04:49:42.869Z,14.53
2018-05-23T04:52:11.294Z,14.43
2018-05-23T04:54:39.695Z,13.70
2018-05-23T04:57:08.083Z,15.40
2018-05-23T04:59:36.786Z,12.17
2018-05-23T05:02:05.279Z,13.73
2018-05-23T05:04:33.692Z,13.77
2018-05-23T05:07:02.136Z,13.57
2018-05-23T05:09:30.611Z,12.90
2018-05-23T05:11:59.209Z,14.07
2018-05-23T05:14:28.507Z,12.03
2018-05-23T05:16:57.186Z,11.50
2018-05-23T05:19:25.596Z,12.67
2018-05-23T05:21:54.668Z,12.97
2018-05-23T05:24:23.056Z,12.53
2018-05-23T05:26:51.626Z,11.70
2018-05-23T05:29:20.578Z,11.57
2018-05-23T05:31:49.973Z,12.30
2018-05-23T05:34:18.743Z,11.67
2018-05-23T05:36:47.895Z,12.47
2018-05-23T05:39:16.283Z,13.53
2018-05-23T05:41:45.076Z,13.90
2018-05-23T05:44:13.472Z,14.27
2018-05-23T05:46:42.051Z,15.00
2018-05-23T05:49:10.445Z,17.00
2018-05-23T05:51:38.846Z,16.03
2018-05-23T05:54:07.226Z,18.20
2018-05-23T05:56:35.635Z,18.50
2018-05-23T05:59:04.024Z,19.57
2018-05-23T06:01:32.428Z,18.43
2018-05-23T06:04:00.824Z,17.43
2018-05-23T06:06:29.239Z,18.83
2018-05-23T06:08:57.627Z,17.57
2018-05-23T06:11:26.032Z,17.47
2018-05-23T06:13:54.425Z,18.63
2018-05-23T06:16:22.831Z,19.00
2018-05-23T06:18:51.223Z,17.50
2018-05-23T06:21:19.627Z,18.40
2018-05-23T06:23:48.021Z,19.07
2018-05-23T06:26:16.420Z,18.67
2018-05-23T06:28:44.800Z,16.90
2018-05-23T06:31:13.198Z,18.70
2018-05-23T06:33:41.590Z,18.33
2018-05-23T06:36:09.999Z,18.33
2018-05-23T06:38:38.660Z,16.40
2018-05-23T06:41:07.684Z,16.07
2018-05-23T06:43:36.854Z,16.23
2018-05-23T06:46:05.180Z,15.47
2018-05-23T06:48:33.568Z,30.10
2018-05-23T06:51:02.788Z,21.43
2018-05-23T06:53:32.031Z,21.37
2018-05-23T06:56:00.797Z,19.90
2018-05-23T06:58:29.815Z,17.13
2018-05-23T07:00:58.456Z,14.87
2018-05-23T07:03:27.411Z,12.70
2018-05-23T07:05:56.493Z,13.47
2018-05-23T07:08:25.418Z,13.23
2018-05-23T07:10:54.349Z,12.17
2018-05-23T07:13:23.358Z,12.97
2018-05-23T07:15:52.020Z,13.00
2018-05-23T07:18:20.692Z,14.03
2018-05-23T07:20:49.472Z,12.43
2018-05-23T07:23:18.527Z,10.73
2018-05-23T07:25:47.515Z,8.90
2018-05-23T07:28:16.160Z,10.13
2018-05-23T07:30:44.933Z,10.23
2018-05-23T07:33:13.702Z,10.57
2018-05-23T07:35:42.407Z,9.97
2018-05-23T07:38:11.311Z,9.90
2018-05-23T07:40:39.799Z,14.27
2018-05-23T07:43:09.102Z,10.27
2018-05-23T07:45:37.779Z,10.03
2018-05-23T07:48:06.484Z,11.20
2018-05-23T07:50:35.355Z,12.30
2018-05-23T07:53:03.743Z,10.33
2018-05-23T07:55:32.263Z,10.43
2018-05-23T07:58:00.648Z,12.10
2018-05-23T08:00:29.550Z,12.20
2018-05-23T08:02:57.942Z,12.90
2018-05-23T08:05:26.756Z,13.63
2018-05-23T08:07:55.547Z,12.87
2018-05-23T08:10:24.569Z,10.93
2018-05-23T08:12:53.235Z,11.70
2018-05-23T08:15:21.642Z,11.27
2018-05-23T08:17:50.794Z,11.73
2018-05-23T08:20:19.423Z,11.20
2018-05-23T08:22:48.175Z,11.77
2018-05-23T08:25:16.572Z,11.20
2018-05-23T08:27:44.981Z,10.97
2018-05-23T08:30:13.376Z,12.53
2018-05-23T08:32:41.783Z,12.90
2018-05-23T08:35:10.179Z,15.10
2018-05-23T08:37:38.587Z,13.00
2018-05-23T08:40:06.979Z,12.33
2018-05-23T08:42:35.951Z,12.93
2018-05-23T08:45:04.968Z,12.63
2018-05-23T08:47:33.528Z,13.80
2018-05-23T08:50:02.768Z,13.63
2018-05-23T08:52:31.729Z,13.33
2018-05-23T08:55:00.620Z,15.10
2018-05-23T08:57:29.392Z,16.87
2018-05-23T08:59:57.857Z,17.37
2018-05-23T09:02:26.520Z,20.07
2018-05-23T09:04:55.765Z,19.70
2018-05-23T09:07:24.946Z,19.27
2018-05-23T09:09:53.919Z,18.17
2018-05-23T09:12:22.507Z,19.43
2018-05-23T09:14:50.895Z,17.63
2018-05-23T09:17:20.069Z,15.77
2018-05-23T09:19:49.192Z,15.80
2018-05-23T09:22:17.899Z,17.10
2018-05-23T09:24:47.211Z,18.37
2018-05-23T09:27:15.877Z,15.80
2018-05-23T09:29:44.756Z,15.93
2018-05-23T09:32:13.625Z,16.67
2018-05-23T09:34:42.119Z,16.47
2018-05-23T09:37:10.819Z,17.07
2018-05-23T09:39:39.215Z,15.23
2018-05-23T09:42:07.782Z,13.97
2018-05-23T09:44:36.784Z,14.27
2018-05-23T09:47:05.187Z,13.53
2018-05-23T09:49:33.567Z,12.43
2018-05-23T09:52:01.973Z,12.13
2018-05-23T09:54:30.354Z,12.27
2018-05-23T09:56:58.812Z,10.80
2018-05-23T09:59:27.174Z,11.00
2018-05-23T10:01:55.583Z,11.60
2018-05-23T10:04:23.964Z,12.03
2018-05-23T10:06:52.378Z,10.70
2018-05-23T10:09:20.751Z,10.73
2018-05-23T10:11:49.155Z,10.30
2018-05-23T10:14:17.539Z,10.93
2018-05-23T10:16:45.942Z,10.70
2018-05-23T10:19:14.339Z,11.77
2018-05-23T10:21:42.736Z,11.33
2018-05-23T10:24:11.753Z,11.57
2018-05-23T10:26:40.149Z,11.30
2018-05-23T10:29:08.528Z,11.23
2018-05-23T10:31:36.939Z,11.20
2018-05-23T10:34:05.323Z,10.17
2018-05-23T10:36:33.724Z,14.27
2018-05-23T10:39:02.202Z,10.83
2018-05-23T10:41:30.836Z,9.93
2018-05-23T10:43:59.579Z,9.47
2018-05-23T10:46:28.224Z,10.00
2018-05-23T10:48:57.287Z,10.57
2018-05-23T10:51:25.695Z,9.80
2018-05-23T10:53:54.896Z,9.57
2018-05-23T10:56:23.745Z,11.23
2018-05-23T10:58:52.131Z,10.40
2018-05-23T11:01:20.736Z,9.37
2018-05-23T11:03:49.117Z,9.13
2018-05-23T11:06:17.503Z,9.67
2018-05-23T11:08:45.880Z,9.77
2018-05-23T11:11:14.279Z,9.80
2018-05-23T11:13:42.678Z,9.63
2018-05-23T11:16:11.063Z,9.67
2018-05-23T11:18:39.456Z,8.73
2018-05-23T11:21:07.847Z,9.60
2018-05-23T11:23:36.226Z,7.50
2018-05-23T11:26:04.612Z,7.87
2018-05-23T11:28:33.002Z,7.53
2018-05-23T11:31:01.380Z,7.77
2018-05-23T11:33:29.776Z,7.70
2018-05-23T11:35:58.159Z,6.10
2018-05-23T11:38:26.560Z,5.80
2018-05-23T11:40:54.944Z,5.33
2018-05-23T11:43:23.419Z,6.10
2018-05-23T11:45:52.415Z,5.12
2018-05-23T11:48:22.061Z,5.90
2018-05-23T11:50:50.774Z,5.43
2018-05-23T11:53:19.164Z,4.60
2018-05-23T11:55:47.542Z,4.57
2018-05-23T11:58:15.937Z,5.32
2018-05-23T12:00:44.321Z,4.78
2018-05-23T12:03:12.726Z,5.40
2018-05-23T12:05:41.112Z,4.85
2018-05-23T12:08:09.511Z,4.87
2018-05-23T12:10:37.988Z,4.67
2018-05-23T12:13:06.274Z,4.30
2018-05-23T12:15:34.654Z,5.73
2018-05-23T12:18:03.052Z,6.32
2018-05-23T12:20:31.435Z,6.27
2018-05-23T12:22:59.830Z,4.17
2018-05-23T12:25:28.216Z,3.28
2018-05-23T12:27:56.604Z,3.53
2018-05-23T12:30:24.978Z,3.78
2018-05-23T12:32:53.379Z,4.10
2018-05-23T12:35:21.764Z,4.32
2018-05-23T12:37:50.154Z,5.43
2018-05-23T12:40:18.527Z,5.05
2018-05-23T12:42:46.979Z,5.68
2018-05-23T12:45:15.358Z,4.85
2018-05-23T12:47:44.212Z,5.85
2018-05-23T12:50:13.567Z,5.18
2018-05-23T12:52:42.427Z,6.18
2018-05-23T12:55:11.368Z,4.97
2018-05-23T12:57:39.901Z,5.12
2018-05-23T13:00:08.284Z,6.57
2018-05-23T13:02:36.863Z,5.15
2018-05-23T13:05:05.235Z,4.68
2018-05-23T13:07:33.641Z,5.28
2018-05-23T13:10:02.020Z,4.80
2018-05-23T13:12:30.481Z,6.35
2018-05-23T13:14:58.791Z,6.75
2018-05-23T13:17:27.183Z,6.25
2018-05-23T13:19:55.554Z,5.75
2018-05-23T13:22:23.961Z,5.70
2018-05-23T13:24:52.341Z,5.47
2018-05-23T13:27:20.730Z,6.70
2018-05-23T13:29:49.116Z,5.60
2018-05-23T13:32:17.518Z,6.15
2018-05-23T13:34:45.887Z,6.50
2018-05-23T13:37:14.291Z,6.70
2018-05-23T13:39:42.674Z,5.85
2018-05-23T13:42:11.066Z,6.15
2018-05-23T13:44:39.650Z,5.85
2018-05-23T13:47:08.043Z,7.18
2018-05-23T13:49:37.339Z,6.30
2018-05-23T13:52:05.992Z,6.32
2018-05-23T13:54:34.373Z,6.25
2018-05-23T13:57:02.776Z,6.25
2018-05-23T13:59:31.155Z,6.32
2018-05-23T14:01:59.546Z,8.90
2018-05-23T14:04:27.932Z,6.80
2018-05-23T14:06:56.328Z,6.97
2018-05-23T14:09:24.704Z,7.57
2018-05-23T14:11:53.079Z,7.33
2018-05-23T14:14:21.479Z,7.07
2018-05-23T14:16:49.853Z,7.07
2018-05-23T14:19:18.324Z,7.10
2018-05-23T14:21:46.631Z,6.70
2018-05-23T14:24:15.023Z,7.35
2018-05-23T14:26:43.390Z,7.70
2018-05-23T14:29:11.791Z,7.62
2018-05-23T14:31:40.171Z,7.43
2018-05-23T14:34:08.575Z,7.32
2018-05-23T14:36:36.944Z,7.65
2018-05-23T14:39:06.115Z,8.55
2018-05-23T14:41:34.495Z,9.02
2018-05-23T14:44:02.899Z,7.45
2018-05-23T14:46:31.796Z,8.73
2018-05-23T14:49:00.182Z,7.45
2018-05-23T14:51:28.695Z,9.63
2018-05-23T14:53:57.441Z,8.63
2018-05-23T14:56:26.001Z,8.77
2018-05-23T14:58:54.495Z,8.02
2018-05-23T15:01:22.863Z,7.00
2018-05-23T15:03:51.268Z,6.57
2018-05-23T15:06:19.636Z,7.97
2018-05-23T15:08:48.023Z,7.07
2018-05-23T15:11:16.399Z,8.07
2018-05-23T15:13:44.796Z,9.03
2018-05-23T15:16:13.176Z,8.83
2018-05-23T15:18:41.562Z,8.00
2018-05-23T15:21:09.938Z,8.07
2018-05-23T15:23:38.343Z,7.50
2018-05-23T15:26:06.723Z,7.77
2018-05-23T15:28:35.116Z,7.70
2018-05-23T15:31:03.483Z,9.17
2018-05-23T15:33:31.875Z,8.67
2018-05-23T15:36:00.259Z,7.73
2018-05-23T15:38:28.656Z,7.57
2018-05-23T15:40:57.032Z,7.47
2018-05-23T15:43:25.457Z,27.23
2018-05-23T15:45:53.835Z,9.53
2018-05-23T15:48:23.074Z,8.27
2018-05-23T15:50:51.459Z,8.77
2018-05-23T15:53:20.063Z,8.53
2018-05-23T15:55:48.772Z,8.67
2018-05-23T15:58:17.547Z,8.97
2018-05-23T16:00:45.915Z,9.10
2018-05-23T16:03:14.411Z,8.00
2018-05-23T16:05:43.404Z,8.33
2018-05-23T16:08:11.991Z,9.40
2018-05-23T16:10:40.387Z,8.93
2018-05-23T16:13:09.947Z,9.10
2018-05-23T16:15:38.776Z,9.90
2018-05-23T16:18:07.343Z,8.97
2018-05-23T16:20:35.811Z,10.40
2018-05-23T16:23:04.126Z,11.97
2018-05-23T16:25:32.503Z,9.93
2018-05-23T16:28:00.906Z,9.17
2018-05-23T16:30:29.292Z,11.97
2018-05-23T16:32:57.699Z,10.30
2018-05-23T16:35:26.075Z,8.90
2018-05-23T16:37:54.787Z,8.30
2018-05-23T16:40:23.722Z,8.83
2018-05-23T16:42:53.014Z,8.53
2018-05-23T16:45:22.103Z,7.93
2018-05-23T16:47:50.508Z,7.43
2018-05-23T16:50:20.517Z,8.47
2018-05-23T16:52:49.276Z,7.90
2018-05-23T16:55:18.467Z,8.67
2018-05-23T16:57:46.839Z,6.03
2018-05-23T17:00:15.237Z,7.77
2018-05-23T17:02:43.608Z,8.23
2018-05-23T17:05:12.040Z,7.57
2018-05-23T17:07:41.507Z,8.23
2018-05-23T17:10:10.172Z,8.43
2018-05-23T17:12:38.554Z,8.53
2018-05-23T17:15:07.156Z,10.60
2018-05-23T17:17:35.552Z,31.13
2018-05-23T17:20:03.959Z,14.27
2018-05-23T17:22:32.358Z,8.50
2018-05-23T17:25:01.059Z,9.97
2018-05-23T17:27:30.448Z,9.23
2018-05-23T17:29:58.804Z,9.57
2018-05-23T17:32:27.840Z,9.17
2018-05-23T17:34:56.527Z,9.47
2018-05-23T17:37:25.520Z,9.10
2018-05-23T17:39:54.004Z,13.60
2018-05-23T17:42:22.384Z,9.57
2018-05-23T17:44:50.868Z,8.37
2018-05-23T17:47:19.263Z,8.70
2018-05-23T17:49:49.374Z,8.80
2018-05-23T17:52:18.071Z,8.13
2018-05-23T17:54:46.868Z,8.63
2018-05-23T17:57:15.735Z,8.30
2018-05-23T17:59:44.400Z,8.20
2018-05-23T18:02:13.920Z,8.80
2018-05-23T18:04:42.995Z,9.17
2018-05-23T18:07:11.391Z,8.07
2018-05-23T18:09:40.554Z,8.37
2018-05-23T18:12:09.446Z,8.30
2018-05-23T18:14:38.339Z,7.53
2018-05-23T18:17:06.735Z,8.80
2018-05-23T18:19:36.090Z,8.20
2018-05-23T18:22:04.846Z,7.60
2018-05-23T18:24:33.234Z,8.30
2018-05-23T18:27:01.640Z,7.10
2018-05-23T18:29:30.379Z,8.10
2018-05-23T18:31:59.342Z,7.40
2018-05-23T18:34:27.735Z,15.53
2018-05-23T18:36:56.135Z,8.80
2018-05-23T18:39:25.327Z,8.30
2018-05-23T18:41:54.030Z,7.13
2018-05-23T18:44:22.834Z,7.13
2018-05-23T18:46:51.226Z,7.80
2018-05-23T18:49:20.161Z,7.20
2018-05-23T18:51:49.207Z,7.47
2018-05-23T18:54:18.747Z,7.97
2018-05-23T18:56:47.184Z,7.50
2018-05-23T18:59:15.962Z,7.67
2018-05-23T19:01:44.627Z,8.43
2018-05-23T19:04:13.139Z,7.93
2018-05-23T19:06:41.526Z,7.53
2018-05-23T19:09:09.906Z,9.10
2018-05-23T19:11:38.301Z,7.67
2018-05-23T19:14:06.691Z,11.57
2018-05-23T19:16:35.079Z,8.03
2018-05-23T19:19:03.455Z,6.83
2018-05-23T19:21:31.867Z,7.40
2018-05-23T19:24:00.245Z,8.00
2018-05-23T19:26:28.663Z,7.23
2018-05-23T19:28:57.155Z,7.43
2018-05-23T19:31:25.598Z,7.60
2018-05-23T19:33:54.100Z,7.73
2018-05-23T19:36:22.479Z,7.63
2018-05-23T19:38:50.880Z,9.07
2018-05-23T19:41:19.485Z,7.27
2018-05-23T19:43:47.943Z,7.63
2018-05-23T19:46:16.320Z,8.63
2018-05-23T19:48:44.731Z,8.33
2018-05-23T19:51:13.229Z,7.97
2018-05-23T19:53:42.647Z,8.83
2018-05-23T19:56:11.476Z,8.27
2018-05-23T19:58:40.921Z,7.73
2018-05-23T20:01:09.646Z,8.37
2018-05-23T20:03:38.239Z,7.27
2018-05-23T20:06:08.398Z,8.23
2018-05-23T20:08:37.251Z,8.63
2018-05-23T20:11:07.311Z,7.27
2018-05-23T20:13:36.267Z,8.10
2018-05-23T20:16:04.639Z,11.20
2018-05-23T20:18:33.043Z,8.27
2018-05-23T20:21:02.071Z,8.70
2018-05-23T20:23:30.487Z,30.77
2018-05-23T20:25:59.100Z,11.57
2018-05-23T20:28:27.674Z,8.60
2018-05-23T20:30:56.051Z,8.23
2018-05-23T20:33:24.447Z,8.60
2018-05-23T20:35:53.795Z,10.93
2018-05-23T20:38:22.616Z,9.13
2018-05-23T20:40:51.669Z,9.97
2018-05-23T20:43:20.583Z,9.50
2018-05-23T20:45:48.959Z,11.80
2018-05-23T20:48:17.368Z,10.17
2018-05-23T20:50:46.840Z,11.00
2018-05-23T20:53:15.440Z,9.60
2018-05-23T20:55:43.827Z,9.30
2018-05-23T20:58:12.211Z,8.63
2018-05-23T21:00:40.928Z,10.50
2018-05-23T21:03:09.837Z,138.90
2018-05-23T21:05:38.812Z,8.47
2018-05-23T21:08:08.009Z,8.57
2018-05-23T21:10:36.772Z,8.73
2018-05-23T21:13:05.971Z,9.67
2018-05-23T21:15:34.372Z,8.87
2018-05-23T21:18:02.915Z,8.70
2018-05-23T21:20:31.320Z,8.90
2018-05-23T21:23:00.011Z,9.43
2018-05-23T21:25:28.890Z,9.60
2018-05-23T21:27:57.343Z,8.87
2018-05-23T21:30:25.855Z,9.27
2018-05-23T21:32:55.032Z,9.83
2018-05-23T21:35:23.819Z,9.10
2018-05-23T21:37:52.551Z,9.00
2018-05-23T21:40:21.310Z,8.57
2018-05-23T21:42:50.164Z,10.07
2018-05-23T21:45:18.804Z,9.37
2018-05-23T21:47:48.232Z,9.63
2018-05-23T21:50:17.039Z,9.77
2018-05-23T21:52:45.763Z,10.47
2018-05-23T21:55:14.176Z,9.90
2018-05-23T21:57:43.559Z,10.40
2018-05-23T22:00:11.959Z,10.73
2018-05-23T22:02:40.944Z,11.50
2018-05-23T22:05:09.723Z,10.37
2018-05-23T22:07:38.117Z,10.23
2018-05-23T22:10:06.515Z,11.37
2018-05-23T22:12:34.895Z,10.50
2018-05-23T22:15:03.299Z,11.17
2018-05-23T22:17:31.679Z,10.13
2018-05-23T22:20:00.079Z,11.47
2018-05-23T22:22:28.459Z,12.83
2018-05-23T22:24:56.855Z,10.07
2018-05-23T22:27:25.234Z,10.53
2018-05-23T22:29:53.631Z,9.97
2018-05-23T22:32:22.015Z,10.90
2018-05-23T22:34:50.410Z,10.60
2018-05-23T22:37:18.794Z,10.93
2018-05-23T22:39:47.204Z,10.83
2018-05-23T22:42:15.579Z,11.17
2018-05-23T22:44:43.983Z,11.67
2018-05-23T22:47:12.375Z,11.50
2018-05-23T22:49:40.787Z,10.90
2018-05-23T22:52:09.187Z,10.93
2018-05-23T22:54:38.259Z,10.87
2018-05-23T22:57:06.651Z,11.67
2018-05-23T22:59:35.303Z,12.00
2018-05-23T23:02:04.204Z,11.77
2018-05-23T23:04:32.787Z,11.10
2018-05-23T23:07:01.260Z,10.63
2018-05-23T23:09:29.676Z,12.23
2018-05-23T23:11:58.062Z,11.77
2018-05-23T23:14:27.179Z,12.50
2018-05-23T23:16:55.700Z,12.23
2018-05-23T23:19:24.107Z,11.40
2018-05-23T23:21:52.490Z,12.40
2018-05-23T23:24:20.895Z,12.73
2018-05-23T23:26:49.282Z,11.80
2018-05-23T23:29:17.683Z,12.57
2018-05-23T23:31:47.067Z,12.40
2018-05-23T23:34:15.480Z,11.63
2018-05-23T23:36:43.862Z,12.27
2018-05-23T23:39:12.263Z,12.03
2018-05-23T23:41:40.648Z,11.83
2018-05-23T23:44:09.039Z,12.57
2018-05-23T23:46:37.438Z,13.70
2018-05-23T23:49:05.847Z,13.90
2018-05-23T23:51:34.242Z,13.50
2018-05-23T23:54:02.635Z,12.43
2018-05-23T23:56:31.048Z,13.73
2018-05-23T23:58:59.798Z,13.30
